TimeEST,TemperatureF,Dew PointF,Humidity,Sea Level PressureIn,VisibilityMPH,Wind Direction,Wind SpeedMPH,Gust SpeedMPH,PrecipitationIn,Events,Conditions,WindDirDegrees,DateUTC
12:53 AM,53.1,43.0,69,30.21,-9999.0,ENE,3.5,-,N/A,,Unknown,70,2013-03-09 05:53:00
1:53 AM,46.9,41.0,80,30.22,-9999.0,Calm,Calm,-,N/A,,Unknown,0,2013-03-09 06:53:00
2:53 AM,43.0,39.9,89,30.19,-9999.0,Calm,Calm,-,N/A,,Unknown,0,2013-03-09 07:53:00
3:53 AM,41.0,37.9,89,30.19,-9999.0,Calm,Calm,-,N/A,,Unknown,0,2013-03-09 08:53:00
4:53 AM,39.0,36.0,89,30.20,-9999.0,Calm,Calm,-,N/A,,Unknown,0,2013-03-09 09:53:00
5:53 AM,37.0,34.0,89,30.21,-9999.0,Calm,Calm,-,N/A,,Unknown,0,2013-03-09 10:53:00
6:53 AM,37.0,34.0,89,30.23,-9999.0,Calm,Calm,-,N/A,,Unknown,0,2013-03-09 11:53:00
7:53 AM,44.1,42.1,93,30.25,-9999.0,Calm,Calm,-,N/A,,Unknown,0,2013-03-09 12:53:00
8:53 AM,55.9,46.0,69,30.27,-9999.0,Calm,Calm,-,N/A,,Unknown,0,2013-03-09 13:53:00
9:53 AM,61.0,43.0,52,30.27,-9999.0,ESE,6.9,-,N/A,,Unknown,110,2013-03-09 14:53:00
10:53 AM,66.0,39.0,37,30.26,-9999.0,Variable,4.6,-,N/A,,Unknown,0,2013-03-09 15:53:00
11:53 AM,69.1,37.0,31,30.25,-9999.0,East,8.1,-,N/A,,Unknown,100,2013-03-09 16:53:00
12:53 PM,70.0,37.0,30,30.23,-9999.0,Variable,6.9,-,N/A,,Unknown,0,2013-03-09 17:53:00
1:53 PM,72.0,37.0,28,30.20,-9999.0,ENE,5.8,-,N/A,,Unknown,60,2013-03-09 18:53:00
2:53 PM,73.0,37.0,27,30.18,-9999.0,East,9.2,-,N/A,,Unknown,90,2013-03-09 19:53:00
3:53 PM,73.0,36.0,26,30.17,-9999.0,NE,5.8,-,N/A,,Unknown,50,2013-03-09 20:53:00
4:53 PM,73.0,36.0,26,30.18,-9999.0,Variable,3.5,-,N/A,,Unknown,0,2013-03-09 21:53:00
5:53 PM,71.1,37.0,29,30.18,-9999.0,Calm,Calm,-,N/A,,Unknown,0,2013-03-09 22:53:00
6:53 PM,64.0,42.1,45,30.18,-9999.0,Calm,Calm,-,N/A,,Unknown,0,2013-03-09 23:53:00
7:53 PM,61.0,42.1,50,30.19,-9999.0,Calm,Calm,-,N/A,,Unknown,0,2013-03-10 00:53:00
8:53 PM,61.0,46.0,58,30.20,-9999.0,East,3.5,-,N/A,,Unknown,100,2013-03-10 01:53:00
9:53 PM,60.1,46.9,62,30.21,-9999.0,East,4.6,-,N/A,,Unknown,80,2013-03-10 02:53:00
10:53 PM,57.9,48.0,70,30.22,-9999.0,East,4.6,-,N/A,,Unknown,100,2013-03-10 03:53:00
11:53 PM,57.0,48.0,72,30.20,-9999.0,Variable,3.5,-,N/A,,Unknown,0,2013-03-10 04:53:00